Flight Track Log - Related Links

Times and Time Zones

All times are in EDT time to prevent confusion due to time zone crossing. See the N500CM flight status page for this flight to view local times or setup timezone preferences in your user account.

Time Position Orientation Groundspeed Altitude Reporting Facility
EDT Latitude Longitude Course Direction KTS MPH feet Rate Location/Type
Tue 09:13:00 AM 36.1061 -75.9622 302° West  Level FlightAware Approximate
Tue 09:14:15 AM 35.9828 -75.7358 302° West 165 190 3,100  Level Washington Center
Tue 09:15:15 AM 35.9931 -75.7897 283° West 159 183 3,100  Level Washington Center
Tue 09:16:13 AM 36.0075 -75.8436 288° West 164 189 3,100 -55 Level Washington Center
Tue 09:17:04 AM 36.0325 -75.8925 302° West 173 199 3,000  Descending Washington Center
Tue 09:18:14 AM 36.0658 -75.9286 319° Northwest 158 182 3,100 55 Climbing Washington Center
Tue 09:18:53 AM 36.0908 -75.9594 315° West 163 188 3,100  Level Washington Center
Tue 09:19:14 AM 36.0992 -75.9672 323° Northwest 158 182 3,100 492 Level Washington Center
Tue 09:19:54 AM 36.1178 -75.9983 307° West 152 175 3,600 492 Climbing Washington Center
Tue 09:20:15 AM 36.1261 -76.0061 323° Northwest 158 182 3,600 197 Level Washington Center
Tue 09:20:55 AM 36.1469 -76.0344 312° West 146 168 3,800 414 Climbing Washington Center
Tue 09:21:13 AM 36.1553 -76.0422 323° Northwest 158 182 4,000 500 Climbing Washington Center
Tue 09:21:55 AM 36.1758 -76.0731 310° West 142 163 4,300 400 Climbing Washington Center
Tue 09:22:13 AM 36.1822 -76.0758 341° North 147 169 4,400 492 Climbing Washington Center
Tue 09:22:56 AM 36.2050 -76.1094 310° West 141 162 4,800 393 Climbing Washington Center
Tue 09:23:14 AM 36.2092 -76.1094 360° North 147 169 4,800 300 Level Washington Center
Tue 09:23:56 AM 36.2383 -76.1303 330° Northwest 150 173 5,100 300 Climbing Washington Center
Tue 09:24:14 AM 36.2467 -76.1278 14° North 142 163 5,100 400 Level Washington Center
Tue 09:24:56 AM 36.2781 -76.1281 360° North 142 163 5,500 400 Climbing Washington Center
Tue 09:25:14 AM 36.2883 -76.1281 360° North 137 158 5,500 197 Level Washington Center
Tue 09:25:57 AM 36.3197 -76.1283 360° North 151 174 5,700 295 Climbing Washington Center
Tue 09:26:15 AM 36.3281 -76.1256 15° North 137 158 5,800 348 Climbing Washington Center
Tue 09:27:06 AM 36.3656 -76.1283 357° North 146 168 6,100 453 Climbing Washington Center
Tue 09:28:01 AM 36.3989 -76.1314 356° North 135 155 6,600 531 Climbing Washington Center
Tue 09:28:59 AM 36.4364 -76.1342 357° North 138 159 7,100 198 Climbing Washington Center
Tue 09:30:02 AM 36.4803 -76.1397 354° North 157 181 7,000 -48 Descending Washington Center
Tue 09:31:03 AM 36.5261 -76.1450 355° North 160 184 7,000  Level Washington Center
Tue 09:32:09 AM 36.5742 -76.1506 355° North 158 182 7,000  Level Washington Center
Tue 09:33:04 AM 36.6136 -76.1561 354° North 158 182 7,000  Level Washington Center
Tue 09:34:05 AM 36.6575 -76.1642 352° North 156 180 7,000  Level Washington Center
Tue 09:34:59 AM 36.6972 -76.1697 354° North 156 180 7,000  Level Washington Center
Tue 09:36:05 AM 36.7431 -76.1778 352° North 154 177 7,000  Level Washington Center
Tue 09:37:00 AM 36.7825 -76.1831 354° North 154 177 7,000  Level Washington Center
Tue 09:38:01 AM 36.8283 -76.1886 354° North 154 177 7,000  Level Washington Center
Tue 09:39:05 AM 36.8742 -76.1969 352° North 156 180 7,000  Level Washington Center
Tue 09:40:05 AM 36.9161 -76.1894 North 160 184 7,000  Level Washington Center
Tue 09:41:09 AM 36.9578 -76.1742 16° North 160 184 7,000  Level Washington Center
Tue 09:42:03 AM 36.9997 -76.1614 14° North 159 183 7,000  Level Washington Center
Tue 09:43:03 AM 37.0436 -76.1461 16° North 159 183 7,000  Level Washington Center
Tue 09:44:10 AM 37.0894 -76.1283 17° North 158 182 7,000  Level Washington Center
Tue 09:45:04 AM 37.1311 -76.1181 11° North 160 184 7,000  Level Washington Center
Tue 09:46:05 AM 37.1731 -76.1053 14° North 159 183 7,000  Level Washington Center
Tue 09:47:12 AM 37.2211 -76.0900 14° North 161 185 7,000  Level Washington Center
Tue 09:48:18 AM 37.2669 -76.0719 17° North 161 185 7,000  Level Washington Center
Tue 09:49:13 AM 37.3067 -76.0592 14° North 158 182 7,000  Level Washington Center
Tue 09:50:14 AM 37.3486 -76.0333 26° Northeast 160 184 7,000  Level Washington Center
Tue 09:51:15 AM 37.3883 -76.0075 27° Northeast 158 182 7,000  Level Washington Center
Tue 09:51:51 AM 37.4111 -75.9919 28° Northeast 158 182 7,000  Level Washington Center
Tue 09:52:09 AM 37.4239 -75.9867 18° North 159 183 7,000  Level Washington Center
Tue 09:53:11 AM 37.4656 -75.9633 24° Northeast 160 184 7,000  Level Washington Center
Tue 09:54:11 AM 37.5072 -75.9453 19° North 159 183 7,000  Level Washington Center
Tue 09:55:12 AM 37.5511 -75.9219 23° Northeast 161 185 7,000  Level Washington Center
Tue 09:56:13 AM 37.5931 -75.9011 21° North 161 185 7,000  Level Washington Center
Tue 09:57:14 AM 37.6347 -75.8778 24° Northeast 159 183 7,000  Level Washington Center
Tue 09:58:14 AM 37.6786 -75.8567 21° North 161 185 7,000  Level Washington Center
Tue 09:59:15 AM 37.7203 -75.8361 21° North 158 182 7,000  Level Washington Center
Tue 10:00:15 AM 37.7581 -75.8178 21° North 159 183 7,000  Level Washington Center
Tue 10:01:10 AM 37.7956 -75.7967 24° Northeast 160 184 7,000  Level Washington Center
Tue 10:02:10 AM 37.8353 -75.7731 25° Northeast 158 182 7,000  Level Washington Center
Tue 10:03:11 AM 37.8789 -75.7522 21° North 162 186 7,000  Level Washington Center
Tue 10:04:11 AM 37.9228 -75.7314 21° North 159 183 7,000  Level Washington Center
Tue 10:05:12 AM 37.9625 -75.7131 20° North 157 181 7,000  Level Washington Center
Tue 10:06:13 AM 38.0042 -75.6892 24° Northeast 157 181 7,000  Level Washington Center
Tue 10:07:14 AM 38.0439 -75.6656 25° Northeast 158 182 7,000  Level Washington Center
Tue 10:08:15 AM 38.0875 -75.6419 23° Northeast 161 185 7,000  Level Washington Center
Tue 10:09:15 AM 38.1314 -75.6233 18° North 161 185 7,000  Level Washington Center
Tue 10:10:17 AM 38.1731 -75.6022 22° Northeast 163 188 7,000  Level Washington Center
Tue 10:11:15 AM 38.2147 -75.5839 19° North 165 190 7,000  Level Washington Center
Tue 10:12:16 AM 38.2586 -75.5628 21° North 163 188 7,000  Level Washington Center
Tue 10:13:38 AM 38.3169 -75.5283 25° Northeast 183 211 7,000 127 Level Washington Center
Tue 10:14:38 AM 38.3544 -75.5044 27° Northeast 176 203 7,300 298 Climbing Washington Center
Tue 10:15:39 AM 38.3900 -75.4753 33° Northeast 157 181 7,600 252 Climbing Washington Center
Tue 10:16:37 AM 38.4211 -75.4511 31° Northeast 136 157 7,800 252 Climbing Washington Center
Tue 10:17:38 AM 38.4525 -75.4194 38° Northeast 136 157 8,100 295 Climbing Washington Center
Tue 10:18:39 AM 38.4817 -75.3875 41° Northeast 136 157 8,400 252 Climbing Washington Center
Tue 10:19:37 AM 38.5169 -75.3581 33° Northeast 136 157 8,600 202 Climbing Washington Center
Tue 10:20:38 AM 38.5461 -75.3289 38° Northeast 136 157 8,800 197 Climbing Washington Center
Tue 10:21:39 AM 38.5794 -75.2969 37° Northeast 136 157 9,000 151 Climbing Washington Center
Tue 10:22:37 AM 38.6147 -75.2650 35° Northeast 136 157 9,100 51 Climbing Washington Center
Tue 10:23:37 AM 38.6522 -75.2328 34° Northeast 146 168 9,100  Level Washington Center
Tue 10:24:38 AM 38.6875 -75.2008 35° Northeast 152 175 9,100  Level Washington Center
Tue 10:25:39 AM 38.7228 -75.1686 35° Northeast 152 175 9,100  Level Washington Center
Tue 10:26:37 AM 38.7603 -75.1364 34° Northeast 152 175 9,100  Level Washington Center
Tue 10:27:38 AM 38.7933 -75.1042 37° Northeast 152 175 9,100 -49 Level Washington Center
Tue 10:28:39 AM 38.8308 -75.0694 36° Northeast 152 175 9,000 -50 Descending Washington Center
Tue 10:29:39 AM 38.8661 -75.0397 33° Northeast 152 175 9,000 51 Level Washington Center
Tue 10:30:37 AM 38.9033 -75.0022 38° Northeast 152 175 9,100 -252 Climbing Washington Center
Tue 10:31:38 AM 38.9408 -74.9672 36° Northeast 152 175 8,500 -446 Descending Washington Center
Tue 10:32:38 AM 38.9803 -74.9294 37° Northeast 157 181 8,200 -248 Descending Washington Center
Tue 10:33:39 AM 39.0197 -74.8942 35° Northeast 167 192 8,000 -101 Descending Washington Center
Tue 10:34:37 AM 39.0569 -74.8619 34° Northeast 167 192 8,000  Level Washington Center
Tue 10:35:37 AM 39.1006 -74.8372 24° Northeast 167 192 8,000  Level Washington Center
Tue 10:36:38 AM 39.1442 -74.8208 16° North 162 186 8,000  Level Washington Center
Tue 10:37:39 AM 39.1858 -74.8044 17° North 157 181 8,000  Level Washington Center
Tue 10:38:37 AM 39.2272 -74.7850 20° North 157 181 8,000  Level Washington Center
Tue 10:39:38 AM 39.2708 -74.7658 19° North 157 181 8,000  Level Washington Center
Tue 10:40:39 AM 39.3147 -74.7492 16° North 157 181 8,000  Level Washington Center
Tue 10:41:37 AM 39.3561 -74.7300 20° North 157 181 8,000 -51 Level Washington Center
Tue 10:42:37 AM 39.4019 -74.7161 13° North 157 181 7,900 -298 Descending Washington Center
Tue 10:43:38 AM 39.4456 -74.6967 19° North 169 194 7,400 -344 Descending Washington Center
Tue 10:44:39 AM 39.4911 -74.6744 21° North 169 194 7,200 -151 Descending Washington Center
Tue 10:45:37 AM 39.5369 -74.6550 18° North 169 194 7,100 -100 Descending Washington Center
Tue 10:46:39 AM 39.5806 -74.6383 16° North 164 189 7,000 -49 Descending Washington Center
Tue 10:47:39 AM 39.6242 -74.6164 21° North 164 189 7,000  Level Washington Center
Tue 10:48:38 AM 39.6678 -74.5942 21° North 164 189 7,000  Level Washington Center
Tue 10:49:38 AM 39.7069 -74.5639 31° Northeast 164 189 7,000 28 Level Washington Center
Tue 10:51:00 AM 39.7482 -74.5086 46° Northeast  Level FlightAware Approximate
Tue 10:55:52 AM 39.9333 -74.3500 30° Northeast 158 182 7,200  Level New York TRACON
Tue 10:56:52 AM 39.9833 -74.3167 27° Northeast 157 181 7,200  Level New York TRACON
Tue 10:57:52 AM 40.0167 -74.2833 37° Northeast 155 178 7,200  Level New York TRACON
Tue 10:58:00 AM 39.9879 -74.2611 35° Northeast  Level FlightAware Approximate
Tue 10:58:52 AM 40.0500 -74.2667 21° North 155 178 7,200  Level New York TRACON
Tue 10:59:00 AM 40.0227 -74.2273 37° Northeast  Level FlightAware Approximate
Tue 10:59:52 AM 40.0833 -74.2333 37° Northeast 157 181 7,200  Level New York TRACON
Tue 11:00:00 AM 40.0543 -74.1887 46° Northeast  Level FlightAware Approximate
Tue 11:00:52 AM 40.1167 -74.2000 37° Northeast 156 180 7,200  Level New York TRACON
Tue 11:01:00 AM 40.0850 -74.1487 30° Northeast  Level FlightAware Approximate
Tue 11:01:52 AM 40.1667 -74.1667 27° Northeast 154 177 7,200  Level New York TRACON
Tue 11:02:52 AM 40.2000 -74.1333 37° Northeast 154 177 7,200  Level New York TRACON
Tue 11:03:52 AM 40.2333 -74.1000 37° Northeast 153 176 7,200 -50 Level New York TRACON
Tue 11:04:52 AM 40.2667 -74.0667 37° Northeast 154 177 7,100 -50 Descending New York TRACON
Tue 11:05:52 AM 40.3000 -74.0500 21° North 153 176 7,100  Level New York TRACON
Tue 11:06:52 AM 40.3500 -74.0167 27° Northeast 154 177 7,100  Level New York TRACON
Tue 11:07:52 AM 40.3833 -73.9833 37° Northeast 152 175 7,100  Level New York TRACON
Tue 11:08:52 AM 40.4167 -73.9500 37° Northeast 153 176 7,100  Level New York TRACON
Tue 11:09:52 AM 40.4500 -73.9167 37° Northeast 154 177 7,100  Level New York TRACON
Tue 11:10:52 AM 40.4833 -73.9000 21° North 156 180 7,100  Level New York TRACON
Tue 11:11:52 AM 40.5167 -73.8667 37° Northeast 156 180 7,100  Level New York TRACON
Tue 11:12:46 AM 40.5500 -73.8333 37° Northeast 154 177 7,100  Level New York TRACON
Tue 11:13:48 AM 40.5833 -73.8000 37° Northeast 151 174 7,100  Level New York TRACON
Tue 11:14:52 AM 40.6167 -73.7667 37° Northeast 131 151 7,100  Level New York TRACON
Tue 11:15:52 AM 40.6667 -73.7333 27° Northeast 132 152 7,100  Level New York TRACON
Tue 11:16:52 AM 40.7000 -73.6833 49° Northeast 152 175 7,100 53 Level New York TRACON
Tue 11:17:46 AM 40.7167 -73.6500 57° Northeast 152 175 7,200 53 Climbing New York TRACON
Tue 11:18:46 AM 40.7333 -73.6000 66° East 154 177 7,200  Level New York TRACON
Tue 11:19:46 AM 40.7667 -73.5500 49° Northeast 154 177 7,200  Level New York TRACON
Tue 11:20:46 AM 40.7833 -73.5000 66° East 153 176 7,200  Level New York TRACON
Tue 11:21:46 AM 40.8167 -73.4667 37° Northeast 155 178 7,200  Level New York TRACON
Tue 11:22:40 AM 40.8333 -73.4167 66° East 157 181 7,200  Level New York TRACON
Tue 11:23:40 AM 40.8500 -73.3667 66° East 156 180 7,200  Level New York TRACON
Tue 11:24:40 AM 40.8833 -73.3167 49° Northeast 156 180 7,200  Level New York TRACON
Tue 11:25:40 AM 40.9000 -73.2833 57° Northeast 154 177 7,200  Level New York TRACON
Tue 11:26:40 AM 40.9333 -73.2333 49° Northeast 158 182 7,200  Level New York TRACON
Tue 11:27:40 AM 40.9667 -73.2000 37° Northeast 156 180 7,200  Level New York TRACON
Tue 11:28:40 AM 41.0000 -73.1667 37° Northeast 157 181 7,200  Level New York TRACON
Tue 11:29:40 AM 41.0333 -73.1333 37° Northeast 155 178 7,200  Level New York TRACON
Tue 11:30:40 AM 41.0667 -73.1000 37° Northeast 157 181 7,200  Level New York TRACON
Tue 11:31:40 AM 41.1167 -73.0667 27° Northeast 156 180 7,200  Level New York TRACON
Tue 11:32:40 AM 41.1500 -73.0333 37° Northeast 156 180 7,200  Level New York TRACON
Tue 11:33:40 AM 41.1833 -73.0000 37° Northeast 158 182 7,200  Level New York TRACON
Tue 11:34:40 AM 41.2167 -72.9667 37° Northeast 156 180 7,200 -58 Level New York TRACON
Tue 11:35:24 AM 41.2383 -72.9425 40° Northeast 156 180 7,100 -57 Descending Boston Center
Tue 11:36:25 AM 41.2719 -72.9069 38° Northeast 156 180 7,100  Level Boston Center
Tue 11:37:26 AM 41.3075 -72.8683 39° Northeast 156 180 7,100  Level Boston Center
Tue 11:38:26 AM 41.3431 -72.8328 37° Northeast 155 178 7,100  Level Boston Center
Tue 11:39:27 AM 41.3786 -72.7969 37° Northeast 157 181 7,100 49 Level Boston Center
Tue 11:40:28 AM 41.4142 -72.7667 33° Northeast 157 181 7,200 49 Climbing Boston Center
Tue 11:41:29 AM 41.4497 -72.7308 37° Northeast 157 181 7,200  Level Boston Center
Tue 11:42:30 AM 41.4831 -72.6950 39° Northeast 158 182 7,200  Level Boston Center
Tue 11:43:37 AM 41.5289 -72.6675 24° Northeast 161 185 7,200 -47 Level Boston Center
Tue 11:44:38 AM 41.5667 -72.6425 26° Northeast 158 182 7,100 -50 Descending Boston Center
Tue 11:45:38 AM 41.6103 -72.6150 25° Northeast 159 183 7,100 50 Level Boston Center
Tue 11:46:39 AM 41.6500 -72.5928 23° Northeast 158 182 7,200 49 Climbing Boston Center
Tue 11:47:40 AM 41.6897 -72.5681 25° Northeast 159 183 7,200  Level Boston Center
Tue 11:48:41 AM 41.7292 -72.5458 23° Northeast 156 180 7,200  Level Boston Center
Tue 11:49:36 AM 41.7669 -72.5236 24° Northeast 157 181 7,200 -47 Level Boston Center
Tue 11:50:48 AM 41.8169 -72.4958 22° Northeast 158 182 7,100 -47 Descending Boston Center
Tue 11:51:43 AM 41.8544 -72.4736 24° Northeast 159 183 7,100  Level Boston Center
Tue 11:52:44 AM 41.8939 -72.4486 25° Northeast 158 182 7,100  Level Boston Center
Tue 11:53:56 AM 41.9439 -72.4178 25° Northeast 158 182 7,100  Level Boston Center
Tue 11:54:51 AM 41.9772 -72.3983 23° Northeast 156 180 7,100  Level Boston Center
Tue 11:55:50 AM 42.0231 -72.3731 22° Northeast 158 182 7,100  Level Boston Center
Tue 11:56:50 AM 42.0606 -72.3478 27° Northeast 158 182 7,100  Level Boston Center
Tue 11:57:50 AM 42.1022 -72.3225 24° Northeast 158 182 7,100  Level Boston Center
Tue 11:58:54 AM 42.1397 -72.3000 24° Northeast 156 180 7,100 45 Level Boston Center
Tue 12:00:02 PM 42.1814 -72.2747 24° Northeast 169 194 7,200 47 Climbing Boston Center
Tue 12:01:02 PM 42.2253 -72.2494 23° Northeast 158 182 7,200  Level Boston Center
Tue 12:02:02 PM 42.2628 -72.2269 24° Northeast 158 182 7,200  Level Boston Center
Tue 12:03:02 PM 42.3064 -72.2014 23° Northeast 153 176 7,200  Level Boston Center
Tue 12:04:02 PM 42.3417 -72.1761 28° Northeast 153 176 7,200  Level Boston Center
Tue 12:05:02 PM 42.3856 -72.1478 25° Northeast 154 177 7,200  Level Boston Center
Tue 12:06:02 PM 42.4228 -72.1308 19° North 154 177 7,200  Level Boston Center
Tue 12:07:02 PM 42.4667 -72.1053 23° Northeast 149 171 7,200 -50 Level Boston Center
Tue 12:08:02 PM 42.4872 -72.0600 58° Northeast 144 166 7,100  Descending Boston Center
Tue 12:09:02 PM 42.5058 -72.0008 67° East 149 171 7,200 50 Climbing Boston Center
Tue 12:10:02 PM 42.5264 -71.9583 57° Northeast 159 183 7,200  Level Boston Center
Tue 12:11:02 PM 42.5597 -71.9072 48° Northeast 159 183 7,200  Level Boston Center
Tue 12:12:02 PM 42.5844 -71.8678 50° Northeast 147 169 7,200 -50 Level Boston Center
Tue 12:13:02 PM 42.6156 -71.8167 50° Northeast 156 180 7,100 -100 Descending Boston Center
Tue 12:14:02 PM 42.6381 -71.7742 54° Northeast 156 180 7,000 -50 Descending Boston Center
Tue 12:15:02 PM 42.6669 -71.7228 53° Northeast 161 185 7,000  Level Boston Center
Tue 12:16:02 PM 42.6917 -71.6803 52° Northeast 156 180 7,000 50 Level Boston Center
Tue 12:17:02 PM 42.7206 -71.6261 54° Northeast 156 180 7,100 50 Climbing Boston Center
Tue 12:18:02 PM 42.7431 -71.5836 54° Northeast 151 174 7,100  Level Boston Center
Tue 12:19:02 PM 42.7719 -71.5322 53° Northeast 151 174 7,100  Level Boston Center
Tue 12:20:02 PM 42.7967 -71.4867 54° Northeast 151 174 7,100  Level Boston Center
Tue 12:21:02 PM 42.8275 -71.4350 51° Northeast 151 174 7,100 -100 Level Boston Center
Tue 12:22:02 PM 42.8500 -71.3950 52° Northeast 151 174 6,900 -400 Descending Boston Center
Tue 12:23:02 PM 42.8786 -71.3464 51° Northeast 151 174 6,300 -535 Descending Boston Center
Tue 12:23:43 PM 42.9000 -71.3000 58° Northeast 154 177 6,000 -505 Descending KA90
Tue 12:24:37 PM 42.9167 -71.2667 56° Northeast 160 184 5,500 -526 Descending KA90
Tue 12:25:37 PM 42.9333 -71.2000 71° East 163 188 5,000 -480 Descending KA90
Tue 12:26:42 PM 42.9667 -71.1500 48° Northeast 154 177 4,500 -476 Descending KA90
Tue 12:27:43 PM 42.9833 -71.1167 56° Northeast 155 178 4,000 -397 Descending KA90
Tue 12:28:43 PM 43.0167 -71.0667 48° Northeast 147 169 3,700 -400 Descending KA90
Tue 12:29:43 PM 43.0333 -71.0167 65° Northeast 151 174 3,200 -350 Descending KA90
Tue 12:30:43 PM 43.0667 -70.9833 36° Northeast 157 181 3,000 -105 Descending KA90
Tue 12:31:37 PM 43.1167 -71.0000 346° North 162 186 3,000  Level KA90
Tue 12:32:31 PM 43.1500 -71.0167 340° North 166 191 3,000  Level KA90
Tue 12:33:31 PM 43.2000 -71.0333 346° North 160 184 3,000  Level KA90
Tue 12:34:37 PM 43.2333 -71.0000 36° Northeast 163 188 3,000 45 Level KA90
Tue 12:35:43 PM 43.2333 -70.9333 90° East 157 181 3,100  Climbing KA90
Tue 12:36:31 PM 43.2500 -70.9000 56° Northeast 157 181 3,000 -50 Descending KA90
Tue 12:37:43 PM 43.2000 -70.8833 166° South 152 175 3,000 -91 Level KA90
Tue 12:38:43 PM 43.1667 -70.8833 180° South 145 167 2,800 -250 Descending KA90
Tue 12:39:43 PM 43.1333 -70.8833 180° South 127 146 2,500 -1,000 Descending KA90
Tue 12:40:43 PM 43.1000 -70.8500 144° Southeast 134 154 800 -1,700 Descending KA90
Tue 12:42:00 PM 43.0779 -70.8233 141° Southeast  Level Estimated

Login

Don't have an account? Register now (free) for customized features, flight alerts, and more!